Hostname: pi-repe
Pi-Star:3.4.17 / Panell de Control: 20190709

Pi-Star Veu Digital Panell de control de EB3CXQ

Panell de Control | Administrar | Configuració



DAPNET Gateway Activity
Hora (CEST)Time in CEST time zone Time SlotMessage Mode DestíRIC / CapCode of the receiving Pager MessageMessage contents
23:23:31 Jul 18th Slot 5 0000224 YYYYMMDDHHMMSS190718232300
23:22:33 Jul 18th Slot 12 0000216 YYYYMMDDHHMMSS190718212200
23:21:48 Jul 18th Slot 5 0351172 M0GLJ: GCLP 182100Z 35025KT 9999 SCT032 22/14 Q1016 WS ALL RWY NOSIG
23:21:48 Jul 18th Slot 5 0351172 M0GLJ: GCRR 182100Z 01015KT 330V050 9999 OVC030 22/15 Q1016
23:21:48 Jul 18th Slot 5 0351172 M0GLJ: EGNX 182050Z 27008KT CAVOK 15/10 Q1011
23:21:48 Jul 18th Slot 5 0000224 YYYYMMDDHHMMSS190718232100
23:20:06 Jul 18th Slot 5 0000008 eb3cxq
23:20:06 Jul 18th Slot 5 0000216 YYYYMMDDHHMMSS190718212000
23:20:06 Jul 18th Slot 5 0000200 XTIME=2120180719XTIME=2120180719
23:20:06 Jul 18th Slot 5 0002504 [Skyper OTA Time] 212000 180719
23:19:08 Jul 18th Slot 12 0000224 YYYYMMDDHHMMSS190718231900
23:19:08 Jul 18th Slot 12 0000208 XTIME=2319180719XTIME=2319180719
23:18:24 Jul 18th Slot 5 0000216 YYYYMMDDHHMMSS190718211800
23:17:26 Jul 18th Slot 12 0000224 YYYYMMDDHHMMSS190718231700
23:16:41 Jul 18th Slot 5 0000216 YYYYMMDDHHMMSS190718211600
23:15:00 Jul 18th Slot 5 0000224 YYYYMMDDHHMMSS190718231500
23:15:00 Jul 18th Slot 5 0000208 XTIME=2315180719XTIME=2315180719
23:14:01 Jul 18th Slot 12 0000216 YYYYMMDDHHMMSS190718211400
23:14:01 Jul 18th Slot 12 0000200 XTIME=2114180719XTIME=2114180719
23:14:01 Jul 18th Slot 12 0002504 [Skyper OTA Time] 211400 180719